sensor_id;sensor_type;location;lat;lon;timestamp;pressure;altitude;pressure_sealevel;temperature;humidity
9774;BME280;4926;42.670;23.316;2024-02-26T00:01:55;94080.88;;;8.83;73.46
9774;BME280;4926;42.670;23.316;2024-02-26T00:04:21;94087.88;;;8.88;74.01
9774;BME280;4926;42.670;23.316;2024-02-26T00:06:47;94089.31;;;8.94;73.32
9774;BME280;4926;42.670;23.316;2024-02-26T00:09:15;94083.72;;;8.92;72.84
9774;BME280;4926;42.670;23.316;2024-02-26T00:11:41;94083.59;;;8.77;73.10
9774;BME280;4926;42.670;23.316;2024-02-26T00:14:06;94079.50;;;8.86;73.27
9774;BME280;4926;42.670;23.316;2024-02-26T00:16:32;94076.75;;;8.88;72.63
9774;BME280;4926;42.670;23.316;2024-02-26T00:18:58;94080.88;;;8.83;73.29
9774;BME280;4926;42.670;23.316;2024-02-26T00:21:23;94079.34;;;8.72;73.83
9774;BME280;4926;42.670;23.316;2024-02-26T00:23:55;94077.09;;;8.59;73.50
9774;BME280;4926;42.670;23.316;2024-02-26T00:26:20;94070.78;;;8.52;73.88
9774;BME280;4926;42.670;23.316;2024-02-26T00:28:46;94059.69;;;8.54;74.28
9774;BME280;4926;42.670;23.316;2024-02-26T00:31:11;94068.00;;;8.52;75.25
9774;BME280;4926;42.670;23.316;2024-02-26T00:33:37;94072.00;;;8.37;75.31
9774;BME280;4926;42.670;23.316;2024-02-26T00:36:03;94067.06;;;8.33;75.51
9774;BME280;4926;42.670;23.316;2024-02-26T00:38:31;94069.00;;;8.23;76.10
9774;BME280;4926;42.670;23.316;2024-02-26T00:40:57;94051.69;;;8.26;75.78
9774;BME280;4926;42.670;23.316;2024-02-26T00:43:22;94057.84;;;8.18;75.41
9774;BME280;4926;42.670;23.316;2024-02-26T00:45:48;94051.56;;;8.16;75.83
9774;BME280;4926;42.670;23.316;2024-02-26T00:48:14;94047.81;;;7.95;77.25
9774;BME280;4926;42.670;23.316;2024-02-26T00:50:40;94048.34;;;7.81;77.19
9774;BME280;4926;42.670;23.316;2024-02-26T00:53:05;94040.97;;;8.02;76.43
9774;BME280;4926;42.670;23.316;2024-02-26T00:55:31;94048.63;;;8.04;76.91
9774;BME280;4926;42.670;23.316;2024-02-26T00:57:56;94043.22;;;8.16;76.51
9774;BME280;4926;42.670;23.316;2024-02-26T01:00:22;94030.81;;;8.23;76.33
9774;BME280;4926;42.670;23.316;2024-02-26T01:02:48;94039.34;;;8.35;75.80
9774;BME280;4926;42.670;23.316;2024-02-26T01:05:13;94027.53;;;8.37;75.94
9774;BME280;4926;42.670;23.316;2024-02-26T01:07:39;94030.44;;;8.47;74.51
9774;BME280;4926;42.670;23.316;2024-02-26T01:10:06;94032.59;;;8.52;75.72
9774;BME280;4926;42.670;23.316;2024-02-26T01:12:35;94035.47;;;8.63;75.48
9774;BME280;4926;42.670;23.316;2024-02-26T01:15:01;94032.06;;;8.70;75.30
9774;BME280;4926;42.670;23.316;2024-02-26T01:17:28;94034.22;;;8.76;74.19
9774;BME280;4926;42.670;23.316;2024-02-26T01:19:53;94037.06;;;8.80;74.97
9774;BME280;4926;42.670;23.316;2024-02-26T01:22:19;94030.84;;;8.83;74.05
9774;BME280;4926;42.670;23.316;2024-02-26T01:24:45;94033.59;;;8.81;74.55
9774;BME280;4926;42.670;23.316;2024-02-26T01:27:10;94030.16;;;8.87;74.12
9774;BME280;4926;42.670;23.316;2024-02-26T01:29:36;94031.66;;;8.96;74.50
9774;BME280;4926;42.670;23.316;2024-02-26T01:32:01;94035.13;;;8.97;73.56
9774;BME280;4926;42.670;23.316;2024-02-26T01:34:28;94019.84;;;8.96;73.18
9774;BME280;4926;42.670;23.316;2024-02-26T01:36:53;94025.31;;;8.87;74.08
9774;BME280;4926;42.670;23.316;2024-02-26T01:39:18;94028.09;;;8.89;72.74
9774;BME280;4926;42.670;23.316;2024-02-26T01:41:44;94023.91;;;8.86;73.22
9774;BME280;4926;42.670;23.316;2024-02-26T01:44:12;94029.47;;;8.88;73.49
9774;BME280;4926;42.670;23.316;2024-02-26T01:46:38;94019.16;;;8.99;74.20
9774;BME280;4926;42.670;23.316;2024-02-26T01:49:04;94017.06;;;8.98;73.36
9774;BME280;4926;42.670;23.316;2024-02-26T01:51:30;94019.88;;;9.02;73.43
9774;BME280;4926;42.670;23.316;2024-02-26T01:54:03;94014.34;;;9.04;72.27
9774;BME280;4926;42.670;23.316;2024-02-26T01:56:29;94016.47;;;9.07;73.64
9774;BME280;4926;42.670;23.316;2024-02-26T01:58:59;94023.38;;;9.04;72.52
9774;BME280;4926;42.670;23.316;2024-02-26T02:01:27;94017.13;;;9.06;73.01
9774;BME280;4926;42.670;23.316;2024-02-26T02:03:54;94011.63;;;9.12;73.00
9774;BME280;4926;42.670;23.316;2024-02-26T02:06:21;94014.34;;;9.06;72.34
9774;BME280;4926;42.670;23.316;2024-02-26T02:08:47;94011.59;;;9.08;72.55
9774;BME280;4926;42.670;23.316;2024-02-26T02:11:12;94016.38;;;9.01;73.05
9774;BME280;4926;42.670;23.316;2024-02-26T02:13:40;94012.22;;;8.98;72.68
9774;BME280;4926;42.670;23.316;2024-02-26T02:16:06;94003.78;;;8.90;72.09
9774;BME280;4926;42.670;23.316;2024-02-26T02:18:31;94012.78;;;8.86;73.76
9774;BME280;4926;42.670;23.316;2024-02-26T02:20:56;94005.13;;;8.85;73.38
9774;BME280;4926;42.670;23.316;2024-02-26T02:23:24;94019.69;;;8.81;72.38
9774;BME280;4926;42.670;23.316;2024-02-26T02:25:50;94019.66;;;8.79;71.85
9774;BME280;4926;42.670;23.316;2024-02-26T02:28:18;94014.19;;;8.87;72.01
9774;BME280;4926;42.670;23.316;2024-02-26T02:30:44;94010.69;;;8.87;71.82
9774;BME280;4926;42.670;23.316;2024-02-26T02:33:10;94005.16;;;8.89;71.18
9774;BME280;4926;42.670;23.316;2024-02-26T02:35:37;94003.09;;;8.89;72.53
9774;BME280;4926;42.670;23.316;2024-02-26T02:38:06;94003.75;;;8.88;72.28
9774;BME280;4926;42.670;23.316;2024-02-26T02:40:31;94011.44;;;8.92;71.88
9774;BME280;4926;42.670;23.316;2024-02-26T02:42:57;94017.75;;;8.96;71.54
9774;BME280;4926;42.670;23.316;2024-02-26T02:45:22;94015.00;;;8.98;70.99
9774;BME280;4926;42.670;23.316;2024-02-26T02:47:48;94008.78;;;9.04;70.71
9774;BME280;4926;42.670;23.316;2024-02-26T02:50:13;94022.03;;;9.09;71.58
9774;BME280;4926;42.670;23.316;2024-02-26T02:52:39;94022.09;;;9.15;70.39
9774;BME280;4926;42.670;23.316;2024-02-26T02:55:05;94024.16;;;9.15;70.19
9774;BME280;4926;42.670;23.316;2024-02-26T02:57:31;94026.22;;;9.08;70.70
9774;BME280;4926;42.670;23.316;2024-02-26T02:59:59;94031.59;;;8.90;72.53
9774;BME280;4926;42.670;23.316;2024-02-26T03:02:25;94021.19;;;8.93;72.43
9774;BME280;4926;42.670;23.316;2024-02-26T03:04:50;94019.78;;;8.92;70.91
9774;BME280;4926;42.670;23.316;2024-02-26T03:07:16;94021.22;;;8.97;71.79
9774;BME280;4926;42.670;23.316;2024-02-26T03:09:41;94026.13;;;9.00;72.12
9774;BME280;4926;42.670;23.316;2024-02-26T03:12:07;94024.72;;;8.99;71.78
9774;BME280;4926;42.670;23.316;2024-02-26T03:14:33;94033.81;;;9.04;70.71
9774;BME280;4926;42.670;23.316;2024-02-26T03:16:58;94026.81;;;9.01;70.70
9774;BME280;4926;42.670;23.316;2024-02-26T03:19:24;94021.28;;;9.03;72.19
9774;BME280;4926;42.670;23.316;2024-02-26T03:21:49;94018.59;;;9.11;71.34
9774;BME280;4926;42.670;23.316;2024-02-26T03:24:15;94015.84;;;9.17;70.91
9774;BME280;4926;42.670;23.316;2024-02-26T03:26:40;94013.75;;;9.17;71.70
9774;BME280;4926;42.670;23.316;2024-02-26T03:29:06;94003.31;;;9.16;71.63
9774;BME280;4926;42.670;23.316;2024-02-26T03:31:34;94003.34;;;9.18;71.60
9774;BME280;4926;42.670;23.316;2024-02-26T03:33:59;93997.75;;;9.16;71.51
9774;BME280;4926;42.670;23.316;2024-02-26T03:36:25;93996.38;;;9.17;70.61
9774;BME280;4926;42.670;23.316;2024-02-26T03:38:51;93999.16;;;9.17;70.11
9774;BME280;4926;42.670;23.316;2024-02-26T03:41:19;94000.56;;;9.18;70.62
9774;BME280;4926;42.670;23.316;2024-02-26T03:43:44;94006.84;;;9.22;71.08
9774;BME280;4926;42.670;23.316;2024-02-26T03:46:10;94013.81;;;9.23;70.85
9774;BME280;4926;42.670;23.316;2024-02-26T03:48:40;94002.00;;;9.25;70.18
9774;BME280;4926;42.670;23.316;2024-02-26T03:51:08;93993.63;;;9.21;70.08
9774;BME280;4926;42.670;23.316;2024-02-26T03:53:39;93995.06;;;9.24;71.41
9774;BME280;4926;42.670;23.316;2024-02-26T03:56:13;93993.63;;;9.21;71.04
9774;BME280;4926;42.670;23.316;2024-02-26T03:58:44;93996.38;;;9.19;70.76
9774;BME280;4926;42.670;23.316;2024-02-26T04:01:10;93982.44;;;9.11;71.58
9774;BME280;4926;42.670;23.316;2024-02-26T04:03:35;93993.59;;;9.17;71.06
9774;BME280;4926;42.670;23.316;2024-02-26T04:06:02;93990.81;;;9.19;71.64
9774;BME280;4926;42.670;23.316;2024-02-26T04:08:28;93988.06;;;9.21;71.08
9774;BME280;4926;42.670;23.316;2024-02-26T04:10:53;93985.31;;;9.27;71.74
9774;BME280;4926;42.670;23.316;2024-02-26T04:13:19;93989.97;;;9.00;72.45
9774;BME280;4926;42.670;23.316;2024-02-26T04:15:45;93990.63;;;8.95;72.61
9774;BME280;4926;42.670;23.316;2024-02-26T04:18:11;93983.44;;;8.69;73.88
9774;BME280;4926;42.670;23.316;2024-02-26T04:20:39;93976.56;;;8.78;72.89
9774;BME280;4926;42.670;23.316;2024-02-26T04:23:06;93983.59;;;8.83;73.54
9774;BME280;4926;42.670;23.316;2024-02-26T04:25:31;93984.88;;;8.76;73.41
9774;BME280;4926;42.670;23.316;2024-02-26T04:27:57;93986.91;;;8.68;72.97
9774;BME280;4926;42.670;23.316;2024-02-26T04:30:22;93975.00;;;8.59;74.46
9774;BME280;4926;42.670;23.316;2024-02-26T04:32:48;93970.13;;;8.56;74.97
9774;BME280;4926;42.670;23.316;2024-02-26T04:35:13;93970.00;;;8.47;75.03
9774;BME280;4926;42.670;23.316;2024-02-26T04:37:39;93984.66;;;8.52;74.23
9774;BME280;4926;42.670;23.316;2024-02-26T04:40:05;93984.72;;;8.56;74.18
9774;BME280;4926;42.670;23.316;2024-02-26T04:42:31;93984.03;;;8.60;73.75
9774;BME280;4926;42.670;23.316;2024-02-26T04:44:57;93986.19;;;8.67;74.66
9774;BME280;4926;42.670;23.316;2024-02-26T04:47:23;93991.78;;;8.69;73.18
9774;BME280;4926;42.670;23.316;2024-02-26T04:49:52;93981.44;;;8.78;73.32
9774;BME280;4926;42.670;23.316;2024-02-26T04:52:18;93982.88;;;8.83;72.57
9774;BME280;4926;42.670;23.316;2024-02-26T04:54:44;93985.69;;;8.87;73.62
9774;BME280;4926;42.670;23.316;2024-02-26T04:57:09;93993.38;;;8.93;72.04
9774;BME280;4926;42.670;23.316;2024-02-26T04:59:35;93986.44;;;8.92;73.22
9774;BME280;4926;42.670;23.316;2024-02-26T05:02:00;93985.72;;;8.91;72.51
9774;BME280;4926;42.670;23.316;2024-02-26T05:04:26;93988.47;;;8.89;72.16
9774;BME280;4926;42.670;23.316;2024-02-26T05:06:51;94005.88;;;8.89;73.06
9774;BME280;4926;42.670;23.316;2024-02-26T05:09:18;94004.47;;;8.88;72.87
9774;BME280;4926;42.670;23.316;2024-02-26T05:11:46;94011.47;;;8.94;72.94
9774;BME280;4926;42.670;23.316;2024-02-26T05:14:12;94009.41;;;8.96;73.47
9774;BME280;4926;42.670;23.316;2024-02-26T05:16:37;94011.50;;;8.98;73.79
9774;BME280;4926;42.670;23.316;2024-02-26T05:19:04;94033.72;;;8.94;73.24
9774;BME280;4926;42.670;23.316;2024-02-26T05:21:31;94028.09;;;8.87;73.19
9774;BME280;4926;42.670;23.316;2024-02-26T05:23:56;94031.53;;;8.84;73.92
9774;BME280;4926;42.670;23.316;2024-02-26T05:26:22;94028.31;;;9.14;82.80
9774;BME280;4926;42.670;23.316;2024-02-26T05:28:49;94027.91;;;9.46;76.57
9774;BME280;4926;42.670;23.316;2024-02-26T05:31:16;94032.06;;;9.45;72.90
9774;BME280;4926;42.670;23.316;2024-02-26T05:33:42;94036.84;;;9.34;72.33
9774;BME280;4926;42.670;23.316;2024-02-26T05:36:07;94050.09;;;9.36;70.86
9774;BME280;4926;42.670;23.316;2024-02-26T05:38:33;94041.00;;;9.33;71.39
9774;BME280;4926;42.670;23.316;2024-02-26T05:40:59;94047.94;;;9.26;72.25
9774;BME280;4926;42.670;23.316;2024-02-26T05:43:28;94048.59;;;9.24;72.49
9774;BME280;4926;42.670;23.316;2024-02-26T05:45:53;94052.72;;;9.19;72.26
9774;BME280;4926;42.670;23.316;2024-02-26T05:48:19;94049.16;;;9.13;72.02
9774;BME280;4926;42.670;23.316;2024-02-26T05:50:47;94045.72;;;9.16;71.47
9774;BME280;4926;42.670;23.316;2024-02-26T05:53:13;94051.91;;;9.07;72.68
9774;BME280;4926;42.670;23.316;2024-02-26T05:55:38;94047.00;;;9.03;72.04
9774;BME280;4926;42.670;23.316;2024-02-26T05:58:04;94047.00;;;9.03;72.33
9774;BME280;4926;42.670;23.316;2024-02-26T06:00:30;94046.38;;;9.09;71.64
9774;BME280;4926;42.670;23.316;2024-02-26T06:02:56;94045.69;;;9.12;71.16
9774;BME280;4926;42.670;23.316;2024-02-26T06:05:21;94051.97;;;9.15;71.65
9774;BME280;4926;42.670;23.316;2024-02-26T06:07:47;94056.16;;;9.16;71.66
9774;BME280;4926;42.670;23.316;2024-02-26T06:10:12;94057.53;;;9.15;70.85
9774;BME280;4926;42.670;23.316;2024-02-26T06:12:39;94061.09;;;9.21;71.49
9774;BME280;4926;42.670;23.316;2024-02-26T06:15:05;94063.16;;;9.21;71.69
9774;BME280;4926;42.670;23.316;2024-02-26T06:17:31;94061.78;;;9.22;72.17
9774;BME280;4926;42.670;23.316;2024-02-26T06:19:57;94068.06;;;9.24;71.66
9774;BME280;4926;42.670;23.316;2024-02-26T06:22:24;94070.16;;;9.24;71.18
9774;BME280;4926;42.670;23.316;2024-02-26T06:24:50;94073.63;;;9.27;71.81
9774;BME280;4926;42.670;23.316;2024-02-26T06:27:15;94068.59;;;9.07;69.85
9774;BME280;4926;42.670;23.316;2024-02-26T06:29:41;94058.63;;;8.81;70.74
9774;BME280;4926;42.670;23.316;2024-02-26T06:32:06;94073.16;;;8.78;71.74
9774;BME280;4926;42.670;23.316;2024-02-26T06:34:35;94062.75;;;8.78;71.27
9774;BME280;4926;42.670;23.316;2024-02-26T06:37:00;94066.75;;;8.63;72.72
9774;BME280;4926;42.670;23.316;2024-02-26T06:39:26;94070.91;;;8.62;72.66
9774;BME280;4926;42.670;23.316;2024-02-26T06:41:51;94068.09;;;8.60;73.02
9774;BME280;4926;42.670;23.316;2024-02-26T06:44:23;94076.22;;;8.44;71.96
9774;BME280;4926;42.670;23.316;2024-02-26T06:46:48;94069.25;;;8.39;72.57
9774;BME280;4926;42.670;23.316;2024-02-26T06:49:14;94062.06;;;8.22;73.99
9774;BME280;4926;42.670;23.316;2024-02-26T06:51:39;94072.94;;;8.05;73.67
9774;BME280;4926;42.670;23.316;2024-02-26T06:54:05;94065.75;;;7.88;73.96
9774;BME280;4926;42.670;23.316;2024-02-26T06:56:35;94071.97;;;7.87;75.50
9774;BME280;4926;42.670;23.316;2024-02-26T06:59:04;94062.28;;;7.86;75.84
9774;BME280;4926;42.670;23.316;2024-02-26T07:01:29;94063.72;;;7.91;75.76
9774;BME280;4926;42.670;23.316;2024-02-26T07:03:56;94065.25;;;8.00;74.08
9774;BME280;4926;42.670;23.316;2024-02-26T07:06:21;94063.25;;;8.06;73.55
9774;BME280;4926;42.670;23.316;2024-02-26T07:08:47;94072.25;;;8.05;74.71
9774;BME280;4926;42.670;23.316;2024-02-26T07:11:12;94071.66;;;8.12;74.47
9774;BME280;4926;42.670;23.316;2024-02-26T07:13:37;94083.56;;;8.21;74.40
9774;BME280;4926;42.670;23.316;2024-02-26T07:16:04;94082.88;;;8.21;74.71
9774;BME280;4926;42.670;23.316;2024-02-26T07:18:29;94080.88;;;8.27;73.85
9774;BME280;4926;42.670;23.316;2024-02-26T07:20:56;94080.13;;;8.23;73.39
9774;BME280;4926;42.670;23.316;2024-02-26T07:23:22;94086.41;;;8.25;73.58
9774;BME280;4926;42.670;23.316;2024-02-26T07:25:47;94084.41;;;8.32;74.00
9774;BME280;4926;42.670;23.316;2024-02-26T07:28:15;94081.59;;;8.28;73.67
9774;BME280;4926;42.670;23.316;2024-02-26T07:30:40;94078.94;;;8.38;72.77
9774;BME280;4926;42.670;23.316;2024-02-26T07:33:06;94077.00;;;8.48;73.35
9774;BME280;4926;42.670;23.316;2024-02-26T07:35:34;94070.91;;;8.62;73.36
9774;BME280;4926;42.670;23.316;2024-02-26T07:38:04;94087.66;;;8.68;73.66
9774;BME280;4926;42.670;23.316;2024-02-26T07:40:30;94084.94;;;8.74;73.32
9774;BME280;4926;42.670;23.316;2024-02-26T07:42:56;94088.50;;;8.83;73.08
9774;BME280;4926;42.670;23.316;2024-02-26T07:45:22;94083.81;;;9.00;72.00
9774;BME280;4926;42.670;23.316;2024-02-26T07:47:48;94078.38;;;9.14;71.36
9774;BME280;4926;42.670;23.316;2024-02-26T07:50:13;94082.72;;;9.31;72.35
9774;BME280;4926;42.670;23.316;2024-02-26T07:52:40;94078.63;;;9.42;71.52
9774;BME280;4926;42.670;23.316;2024-02-26T07:55:06;94080.16;;;9.53;70.96
9774;BME280;4926;42.670;23.316;2024-02-26T07:57:32;94083.06;;;9.74;69.50
9774;BME280;4926;42.670;23.316;2024-02-26T08:00:04;94078.28;;;9.82;69.57
9774;BME280;4926;42.670;23.316;2024-02-26T08:02:32;94076.97;;;9.98;68.90
9774;BME280;4926;42.670;23.316;2024-02-26T08:04:59;94075.66;;;10.09;67.92
9774;BME280;4926;42.670;23.316;2024-02-26T08:07:24;94071.59;;;10.22;67.54
9774;BME280;4926;42.670;23.316;2024-02-26T08:09:50;94072.28;;;10.26;67.14
9774;BME280;4926;42.670;23.316;2024-02-26T08:12:15;94068.13;;;10.27;67.15
9774;BME280;4926;42.670;23.316;2024-02-26T08:14:45;94068.19;;;10.38;66.63
9774;BME280;4926;42.670;23.316;2024-02-26T08:17:11;94076.56;;;10.42;65.92
9774;BME280;4926;42.670;23.316;2024-02-26T08:19:36;94073.03;;;10.33;66.30
9774;BME280;4926;42.670;23.316;2024-02-26T08:22:02;94073.75;;;10.42;64.89
9774;BME280;4926;42.670;23.316;2024-02-26T08:24:27;94061.22;;;10.43;66.01
9774;BME280;4926;42.670;23.316;2024-02-26T08:26:53;94069.63;;;10.49;65.39
9774;BME280;4926;42.670;23.316;2024-02-26T08:29:19;94075.16;;;10.43;64.87
9774;BME280;4926;42.670;23.316;2024-02-26T08:31:44;94075.16;;;10.41;63.89
9774;BME280;4926;42.670;23.316;2024-02-26T08:34:10;94071.00;;;10.44;64.13
9774;BME280;4926;42.670;23.316;2024-02-26T08:36:37;94074.53;;;10.52;65.01
9774;BME280;4926;42.670;23.316;2024-02-26T08:39:03;94069.69;;;10.61;64.40
9774;BME280;4926;42.670;23.316;2024-02-26T08:41:28;94064.81;;;10.65;63.11
9774;BME280;4926;42.670;23.316;2024-02-26T08:43:54;94068.34;;;10.76;63.13
9774;BME280;4926;42.670;23.316;2024-02-26T08:46:20;94066.25;;;10.85;63.55
9774;BME280;4926;42.670;23.316;2024-02-26T08:48:45;94073.28;;;10.94;62.77
9774;BME280;4926;42.670;23.316;2024-02-26T08:51:11;94064.22;;;11.04;62.63
9774;BME280;4926;42.670;23.316;2024-02-26T08:53:37;94068.44;;;11.13;62.33
9774;BME280;4926;42.670;23.316;2024-02-26T08:56:02;94065.66;;;11.27;61.69
9774;BME280;4926;42.670;23.316;2024-02-26T08:58:28;94064.97;;;11.20;61.14
9774;BME280;4926;42.670;23.316;2024-02-26T09:00:54;94066.34;;;11.07;61.94
9774;BME280;4926;42.670;23.316;2024-02-26T09:03:20;94064.91;;;10.96;62.04
9774;BME280;4926;42.670;23.316;2024-02-26T09:05:45;94055.88;;;11.04;62.79
9774;BME280;4926;42.670;23.316;2024-02-26T09:08:11;94053.09;;;11.18;61.95
9774;BME280;4926;42.670;23.316;2024-02-26T09:10:38;94058.00;;;11.21;61.77
9774;BME280;4926;42.670;23.316;2024-02-26T09:13:04;94058.00;;;11.33;60.73
9774;BME280;4926;42.670;23.316;2024-02-26T09:15:30;94049.63;;;11.31;60.78
9774;BME280;4926;42.670;23.316;2024-02-26T09:17:55;94049.59;;;11.15;61.27
9774;BME280;4926;42.670;23.316;2024-02-26T09:20:21;94061.50;;;11.32;61.59
9774;BME280;4926;42.670;23.316;2024-02-26T09:22:47;94047.53;;;11.46;61.03
9774;BME280;4926;42.670;23.316;2024-02-26T09:25:14;94053.13;;;11.58;60.30
9774;BME280;4926;42.670;23.316;2024-02-26T09:27:46;94049.66;;;11.82;60.02
9774;BME280;4926;42.670;23.316;2024-02-26T09:30:12;94046.16;;;11.92;59.75
9774;BME280;4926;42.670;23.316;2024-02-26T09:32:38;94045.44;;;11.95;59.47
9774;BME280;4926;42.670;23.316;2024-02-26T09:35:05;94051.69;;;12.20;59.22
9774;BME280;4926;42.670;23.316;2024-02-26T09:37:31;94050.31;;;12.17;58.55
9774;BME280;4926;42.670;23.316;2024-02-26T09:39:59;94044.69;;;12.21;58.68
9774;BME280;4926;42.670;23.316;2024-02-26T09:42:25;94043.97;;;12.27;58.08
9774;BME280;4926;42.670;23.316;2024-02-26T09:44:53;94047.50;;;12.19;57.03
9774;BME280;4926;42.670;23.316;2024-02-26T09:47:21;94040.53;;;12.00;57.46
9774;BME280;4926;42.670;23.316;2024-02-26T09:49:48;94043.34;;;11.80;57.74
9774;BME280;4926;42.670;23.316;2024-02-26T09:52:15;94037.06;;;11.71;58.09
9774;BME280;4926;42.670;23.316;2024-02-26T09:54:41;94041.28;;;11.64;58.05
9774;BME280;4926;42.670;23.316;2024-02-26T09:57:09;94030.78;;;11.52;58.10
9774;BME280;4926;42.670;23.316;2024-02-26T09:59:41;94024.50;;;11.44;58.72
9774;BME280;4926;42.670;23.316;2024-02-26T10:02:14;94032.19;;;11.55;58.47
9774;BME280;4926;42.670;23.316;2024-02-26T10:04:42;94021.69;;;11.70;58.31
9774;BME280;4926;42.670;23.316;2024-02-26T10:07:13;94025.19;;;11.95;58.08
9774;BME280;4926;42.670;23.316;2024-02-26T10:09:39;94034.94;;;12.14;57.66
9774;BME280;4926;42.670;23.316;2024-02-26T10:12:07;94034.94;;;12.10;56.83
9774;BME280;4926;42.670;23.316;2024-02-26T10:14:34;94025.16;;;12.13;57.11
9774;BME280;4926;42.670;23.316;2024-02-26T10:17:00;94013.28;;;12.08;56.33
9774;BME280;4926;42.670;23.316;2024-02-26T10:19:34;94010.47;;;12.17;56.67
9774;BME280;4926;42.670;23.316;2024-02-26T10:22:01;94013.94;;;12.23;55.97
9774;BME280;4926;42.670;23.316;2024-02-26T10:24:29;94020.91;;;12.24;55.98
9774;BME280;4926;42.670;23.316;2024-02-26T10:26:55;94004.78;;;12.41;55.96
9774;BME280;4926;42.670;23.316;2024-02-26T10:29:23;94004.03;;;12.53;54.71
9774;BME280;4926;42.670;23.316;2024-02-26T10:31:50;94006.13;;;12.58;54.44
9774;BME280;4926;42.670;23.316;2024-02-26T10:34:18;93995.03;;;12.36;55.25
9774;BME280;4926;42.670;23.316;2024-02-26T10:36:44;93989.38;;;12.50;55.82
9774;BME280;4926;42.670;23.316;2024-02-26T10:39:11;93999.13;;;12.57;54.09
9774;BME280;4926;42.670;23.316;2024-02-26T10:41:37;93999.91;;;12.39;53.98
9774;BME280;4926;42.670;23.316;2024-02-26T10:44:04;93999.91;;;12.41;53.94
9774;BME280;4926;42.670;23.316;2024-02-26T10:46:29;93982.50;;;12.23;53.60
9774;BME280;4926;42.670;23.316;2024-02-26T10:48:55;93997.19;;;12.17;54.31
9774;BME280;4926;42.670;23.316;2024-02-26T10:51:28;93987.38;;;12.28;53.49
9774;BME280;4926;42.670;23.316;2024-02-26T10:53:58;93992.25;;;12.26;54.28
9774;BME280;4926;42.670;23.316;2024-02-26T10:56:28;93993.00;;;12.20;54.00
9774;BME280;4926;42.670;23.316;2024-02-26T10:58:57;93985.31;;;12.19;54.48
9774;BME280;4926;42.670;23.316;2024-02-26T11:01:24;93981.78;;;12.24;54.43
9774;BME280;4926;42.670;23.316;2024-02-26T11:03:52;93985.94;;;12.39;54.93
9774;BME280;4926;42.670;23.316;2024-02-26T11:06:21;93990.09;;;12.47;53.76
9774;BME280;4926;42.670;23.316;2024-02-26T11:08:50;93984.56;;;12.30;54.12
9774;BME280;4926;42.670;23.316;2024-02-26T11:11:17;93992.91;;;12.38;54.79
9774;BME280;4926;42.670;23.316;2024-02-26T11:13:48;93987.38;;;12.28;54.72
9774;BME280;4926;42.670;23.316;2024-02-26T11:16:21;93980.34;;;12.37;54.87
9774;BME280;4926;42.670;23.316;2024-02-26T11:18:48;93988.72;;;12.37;53.14
9774;BME280;4926;42.670;23.316;2024-02-26T11:21:17;93980.38;;;12.31;54.21
9774;BME280;4926;42.670;23.316;2024-02-26T11:23:56;93978.94;;;12.36;54.28
9774;BME280;4926;42.670;23.316;2024-02-26T11:26:27;93979.63;;;12.45;53.31
9774;BME280;4926;42.670;23.316;2024-02-26T11:28:54;93979.69;;;12.23;53.16
9774;BME280;4926;42.670;23.316;2024-02-26T11:31:19;93979.00;;;12.26;54.18
9774;BME280;4926;42.670;23.316;2024-02-26T11:33:52;93974.06;;;12.35;54.02
9774;BME280;4926;42.670;23.316;2024-02-26T11:36:19;93967.06;;;12.38;53.85
9774;BME280;4926;42.670;23.316;2024-02-26T11:38:46;93964.25;;;12.38;53.96
9774;BME280;4926;42.670;23.316;2024-02-26T11:41:15;93966.28;;;12.60;53.94
9774;BME280;4926;42.670;23.316;2024-02-26T11:43:53;93975.38;;;12.52;53.05
9774;BME280;4926;42.670;23.316;2024-02-26T11:46:49;93964.19;;;12.52;52.72
9774;BME280;4926;42.670;23.316;2024-02-26T11:51:54;93958.59;;;12.56;52.70
9774;BME280;4926;42.670;23.316;2024-02-26T11:54:39;93966.28;;;12.54;52.49
9774;BME280;4926;42.670;23.316;2024-02-26T11:57:28;93964.88;;;12.57;51.82
9774;BME280;4926;42.670;23.316;2024-02-26T11:59:55;93963.47;;;12.58;51.46
9774;BME280;4926;42.670;23.316;2024-02-26T12:05:11;93956.56;;;12.36;52.40
9774;BME280;4926;42.670;23.316;2024-02-26T12:07:45;93966.34;;;12.37;52.75
9774;BME280;4926;42.670;23.316;2024-02-26T12:12:53;93967.72;;;12.47;52.23
9774;BME280;4926;42.670;23.316;2024-02-26T12:15:18;93973.31;;;12.47;51.63
9774;BME280;4926;42.670;23.316;2024-02-26T12:17:48;93971.25;;;12.43;51.59
9774;BME280;4926;42.670;23.316;2024-02-26T12:20:14;93962.84;;;12.43;50.73
9774;BME280;4926;42.670;23.316;2024-02-26T12:22:40;93971.88;;;12.52;51.06
9774;BME280;4926;42.670;23.316;2024-02-26T12:25:09;93966.97;;;12.58;51.33
9774;BME280;4926;42.670;23.316;2024-02-26T12:27:34;93966.91;;;12.66;50.40
9774;BME280;4926;42.670;23.316;2024-02-26T12:30:03;93972.47;;;12.74;50.51
9774;BME280;4926;42.670;23.316;2024-02-26T12:32:29;93978.78;;;12.75;50.63
9774;BME280;4926;42.670;23.316;2024-02-26T12:34:56;93982.22;;;12.79;50.30
9774;BME280;4926;42.670;23.316;2024-02-26T12:37:22;93969.69;;;12.76;49.91
9774;BME280;4926;42.670;23.316;2024-02-26T12:39:47;93974.50;;;12.84;50.33
9774;BME280;4926;42.670;23.316;2024-02-26T12:42:14;93973.72;;;13.00;50.17
9774;BME280;4926;42.670;23.316;2024-02-26T12:44:47;93972.88;;;13.22;50.04
9774;BME280;4926;42.670;23.316;2024-02-26T12:47:12;93972.88;;;13.24;49.54
9774;BME280;4926;42.670;23.316;2024-02-26T12:49:48;93967.34;;;13.11;48.97
9774;BME280;4926;42.670;23.316;2024-02-26T12:52:14;93972.22;;;13.13;49.38
9774;BME280;4926;42.670;23.316;2024-02-26T12:54:44;93965.94;;;13.12;48.85
9774;BME280;4926;42.670;23.316;2024-02-26T12:57:10;93970.78;;;13.22;48.82
9774;BME280;4926;42.670;23.316;2024-02-26T12:59:36;93958.13;;;13.33;48.43
9774;BME280;4926;42.670;23.316;2024-02-26T13:02:02;93958.72;;;13.42;48.09
9774;BME280;4926;42.670;23.316;2024-02-26T13:04:29;93965.00;;;13.46;47.73
9774;BME280;4926;42.670;23.316;2024-02-26T13:06:55;93965.69;;;13.47;47.78
9774;BME280;4926;42.670;23.316;2024-02-26T13:09:26;93961.44;;;13.52;48.02
9774;BME280;4926;42.670;23.316;2024-02-26T13:11:55;93952.25;;;13.62;48.23
9774;BME280;4926;42.670;23.316;2024-02-26T13:14:21;93960.00;;;13.55;47.49
9774;BME280;4926;42.670;23.316;2024-02-26T13:16:56;93959.91;;;13.65;47.52
9774;BME280;4926;42.670;23.316;2024-02-26T13:19:22;93959.38;;;13.48;47.19
9774;BME280;4926;42.670;23.316;2024-02-26T13:22:06;93962.25;;;13.38;47.54
9774;BME280;4926;42.670;23.316;2024-02-26T13:24:35;93951.81;;;13.33;47.46